Existen múltiples avisos   Haga clik para más información

Informes METAR

 

LEZL - Sevilla, Spain
Distancia de la estación: ENE 8km
Actualización: 22/11/2019 06:30
Lluvia débil, Llovizna, Cubierto
Lluvia débil, Llovizna, Cubierto
 Viento de calm
Viento: Calma
Temperatura: 14°C
Rocío: 13°C
Humedad: 94%
Barómetro: 1005 hPa
Resumen: Lluvia débil, Llovizna
Nubes: Cubierto
Visibilidad: 5 km
Detalles de las nubes: Muy nuboso 213 m
Muy nuboso 914 m
Cubierto 1219 m
2019/11/22 05:30 LEZL 220530Z 00000KT 5000 -RADZ BKN007 BKN030 OVC040 14/13 Q1005 NOSIG
LEMO - Morón, Spain
Distancia de la estación: SE 43km
Actualización: 22/11/2019 07:00
Lluvia, Muy nuboso
Lluvia, Muy nuboso
 Viento de calm
Viento: Calma
Temperatura: 14°C
Rocío: 14°C
Humedad: 100%
Barómetro: 1005 hPa
Resumen: Lluvia
Nubes: Muy nuboso
Visibilidad: 2 km
Detalles de las nubes: Poco nuboso 61 m
Parcialmente nuboso 183 m
Muy nuboso 518 m
2019/11/22 06:00 LEMO 220600Z 00000KT 2000 RA FEW002 SCT006 BKN017 14/14 Q1005 NOSIG
LEJR - Jeréz, Spain
Distancia de la estación: S 71km
Actualización: 22/11/2019 07:00
Chubascos, Muy nuboso
Chubascos, Muy nuboso
 Viento de OSO
Viento: OSO 11 km/h
Temperatura: 16°C
Rocío: 16°C
Humedad: 100%
Barómetro: 1006 hPa
Resumen: Rain Showers
Nubes: Muy nuboso
Visibilidad: 5 km
Detalles de las nubes: Poco nuboso 244 m
Muy nuboso 396 m
Muy nuboso 1036 m
2019/11/22 06:00 LEJR 220600Z 24006KT 200V280 5000 SHRA FEW008 BKN013TCU BKN034 16/16 Q1006
 
LERT - Rota, Spain
Distancia de la estación: SSO 89km
Actualización: 22/11/2019 06:41
Lluvia, Muy nuboso
Lluvia, Muy nuboso
 Viento de OSO
Viento: OSO 22 km/h
Temperatura: 16°C
Rocío: 16°C
Humedad: 100%
Barómetro: 1005 hPa
Resumen: Lluvia
Nubes: Muy nuboso
Visibilidad: 4 km
Detalles de las nubes: Parcialmente nuboso 152 m
Muy nuboso 457 m
Muy nuboso 914 m
2019/11/22 05:41 LERT 220541Z 24012KT 4000 RA SCT005 BKN015 BKN030 16/16 Q1005 NOSIG
LEMG - Málaga, Spain
Distancia de la estación: ESE 157km
Actualización: 22/11/2019 06:30
Neblina, Muy nuboso
Neblina, Muy nuboso
 Viento de E
Viento: E 4 km/h
Temperatura: 14°C
Rocío: 14°C
Humedad: 100%
Barómetro: 1006 hPa
Resumen: Neblina
Nubes: Muy nuboso
Visibilidad: 5 km
Detalles de las nubes: Poco nuboso 305 m
Muy nuboso 671 m
2019/11/22 05:30 LEMG 220530Z 09002KT 5000 BR FEW010 BKN022 14/14 Q1006 NOSIG
LEBA - Córdoba, Spain
Distancia de la estación: ENE 115km
Actualización: 22/11/2019 06:30
Lluvia débil, Neblina, Cubierto
Lluvia débil, Neblina, Cubierto
 Viento de E
Viento: E 4 km/h
Temperatura: 12°C
Rocío: 12°C
Humedad: 100%
Barómetro: 1006 hPa
Resumen: Lluvia débil, Neblina
Nubes: Cubierto
Visibilidad: 2 km
Detalles de las nubes: Cubierto 457 m
2019/11/22 05:30 LEBA 220530Z AUTO 08002KT 2400 -RA BR OVC015 12/12 Q1006
 
LEGR - Granada, Spain
Distancia de la estación: E 198km
Actualización: 22/11/2019 06:52
Lluvia, Muy nuboso
Lluvia, Muy nuboso
 Viento de calm
Viento: Calma
Temperatura: 10°C
Rocío: 10°C
Humedad: 100%
Barómetro: 1007 hPa
Resumen: Lluvia
Nubes: Muy nuboso
Visibilidad: 3 km
Detalles de las nubes: Parcialmente nuboso 1524 m
Muy nuboso 1981 m
2019/11/22 05:52 LEGR 220552Z 00000KT 2800 RA SCT050 BKN065 10/10 Q1007
LEAM - Almería, Spain
Distancia de la estación: E 326km
Actualización: 22/11/2019 06:30
Muy nuboso
Muy nuboso
 Viento de SO
Viento: SO 22 km/h
Temperatura: 15°C
Rocío: 14°C
Humedad: 94%
Barómetro: 1007 hPa
Nubes: Muy nuboso
Visibilidad: 9 km
Detalles de las nubes: Poco nuboso 152 m
Muy nuboso 305 m
2019/11/22 05:30 LEAM 220530Z 22012KT 9000 FEW005 BKN010 15/14 Q1007
LEMD - Madrid/Barajas, Spain
Distancia de la estación: NNE 402km
Actualización: 22/11/2019 06:30
Llovizna, Muy nuboso
Llovizna, Muy nuboso
 Viento de S
Viento: S 11 km/h
Temperatura: 8°C
Sensación térmica: 6°C
Rocío: 7°C
Humedad: 93%
Barómetro: 1003 hPa
Resumen: Llovizna
Nubes: Muy nuboso
Visibilidad: 10 km
Detalles de las nubes: Parcialmente nuboso 274 m
Muy nuboso 762 m
Muy nuboso 1524 m
2019/11/22 05:30 LEMD 220530Z 18006KT 9999 DZ SCT009 BKN025 BKN050 08/07 Q1003 NOSIG
 
LEVD - Valladolid, Spain
Distancia de la estación: N 492km
Actualización: 22/11/2019 06:30
Lluvia débil, Cubierto
Lluvia débil, Cubierto
 Viento de S
Viento: S 19 km/h
Temperatura: 6°C
Sensación térmica: 3°C
Rocío: 5°C
Humedad: 93%
Barómetro: 999 hPa
Resumen: Lluvia débil
Nubes: Cubierto
Visibilidad: 10 km
Detalles de las nubes: Muy nuboso 396 m
Cubierto 610 m
2019/11/22 05:30 LEVD 220530Z AUTO 18010KT 9999 -RA BKN013 OVC020 06/05 Q0999
LEBL - Barcelona, Spain
Distancia de la estación: NE 816km
Actualización: 22/11/2019 06:30
Lluvia débil, Poco nuboso
Lluvia débil, Poco nuboso
 Viento de NNO
Viento: NNO 20 km/h
Temperatura: 8°C
Sensación térmica: 4°C
Rocío: 5°C
Humedad: 82%
Barómetro: 1006 hPa
Resumen: Lluvia débil
Nubes: Poco nuboso
Visibilidad: 10 km
Detalles de las nubes: Poco nuboso 762 m
2019/11/22 05:30 LEBL 220530Z 33011KT 9999 -RA FEW025 08/05 Q1006 NOSIG
LEVC - Valencia, Spain
Distancia de la estación: ENE 535km
Actualización: 22/11/2019 06:30
Poco nuboso
Poco nuboso
 Viento de O
Viento: O 2 km/h
Temperatura: 9°C
Rocío: 7°C
Humedad: 87%
Barómetro: 1006 hPa
Nubes: Poco nuboso
Visibilidad: 10 km
Detalles de las nubes: Poco nuboso 1524 m
2019/11/22 05:30 LEVC 220530Z 28001KT 9999 FEW050 09/07 Q1006 NOSIG